ALA4532 KIAH-KELP
Flight info
| Callsign | ALA4532 |
|---|---|
| Flight time | 1h 32m |
| Altitude | 34000 |
| Route | PITZZ5 CRGER DCT TXSAS BEAHR3 |
| Aircraft | B38M/M-SDE1FGHILORVWXY/HB1 |
Departure
| Time | 2026-05-09 03:02 |
|---|---|
| Airport | George Bush Intercontinental Airport (KIAH) |
Arrival
| Time | 2026-05-09 04:35 |
|---|---|
| Airport | El Paso International Airport (KELP) |
| Time | Latitude | Longitude | Altitude | Speed | Heading |
|---|---|---|---|---|---|
| 2026-05-09 02:31 | 29.99994 | -95.31183 | 103 ft | 0 kts | 180° |
| 2026-05-09 02:45 | 29.99999 | -95.31183 | 93 ft | 4 kts | 180° |
| 2026-05-09 02:45 | 30.00020 | -95.31183 | 104 ft | 3 kts | 180° |
| 2026-05-09 02:45 | 30.00047 | -95.31182 | 102 ft | 4 kts | 184° |
| 2026-05-09 02:46 | 30.00074 | -95.31179 | 103 ft | 4 kts | 189° |
| 2026-05-09 02:46 | 30.00100 | -95.31172 | 103 ft | 4 kts | 201° |
| 2026-05-09 02:46 | 30.00108 | -95.31168 | 102 ft | 1 kts | 205° |
| 2026-05-09 02:48 | 30.00106 | -95.31170 | 102 ft | 2 kts | 210° |
| 2026-05-09 02:48 | 30.00092 | -95.31192 | 101 ft | 2 kts | 258° |
| 2026-05-09 02:48 | 30.00091 | -95.31210 | 101 ft | 0 kts | 268° |
| 2026-05-09 02:50 | 30.00091 | -95.31213 | 101 ft | 2 kts | 268° |
| 2026-05-09 02:50 | 30.00087 | -95.31246 | 102 ft | 6 kts | 257° |
| 2026-05-09 02:50 | 30.00058 | -95.31285 | 102 ft | 7 kts | 201° |
| 2026-05-09 02:50 | 30.00007 | -95.31287 | 103 ft | 9 kts | 182° |
| 2026-05-09 02:51 | 29.99936 | -95.31290 | 103 ft | 12 kts | 182° |
| 2026-05-09 02:51 | 29.99847 | -95.31291 | 103 ft | 14 kts | 180° |
| 2026-05-09 02:51 | 29.99740 | -95.31290 | 103 ft | 17 kts | 180° |
| 2026-05-09 02:51 | 29.99616 | -95.31291 | 103 ft | 19 kts | 180° |
| 2026-05-09 02:52 | 29.99489 | -95.31290 | 102 ft | 18 kts | 180° |
| 2026-05-09 02:52 | 29.99359 | -95.31290 | 102 ft | 19 kts | 180° |
| 2026-05-09 02:52 | 29.99227 | -95.31291 | 102 ft | 18 kts | 180° |
| 2026-05-09 02:52 | 29.99105 | -95.31310 | 102 ft | 18 kts | 220° |
| 2026-05-09 02:53 | 29.99079 | -95.31457 | 102 ft | 20 kts | 270° |
| 2026-05-09 02:53 | 29.99079 | -95.31621 | 102 ft | 21 kts | 270° |
| 2026-05-09 02:53 | 29.99080 | -95.31791 | 103 ft | 21 kts | 270° |
| 2026-05-09 02:53 | 29.99081 | -95.31969 | 103 ft | 23 kts | 270° |
| 2026-05-09 02:54 | 29.99080 | -95.32151 | 103 ft | 22 kts | 270° |
| 2026-05-09 02:54 | 29.99080 | -95.32331 | 103 ft | 22 kts | 270° |
| 2026-05-09 02:54 | 29.99083 | -95.32503 | 103 ft | 22 kts | 275° |
| 2026-05-09 02:54 | 29.99092 | -95.32664 | 103 ft | 19 kts | 270° |
| 2026-05-09 02:55 | 29.99090 | -95.32819 | 104 ft | 20 kts | 270° |
| 2026-05-09 02:55 | 29.99090 | -95.32976 | 104 ft | 21 kts | 270° |
| 2026-05-09 02:55 | 29.99090 | -95.33146 | 104 ft | 22 kts | 271° |
| 2026-05-09 02:55 | 29.99091 | -95.33323 | 104 ft | 22 kts | 269° |
| 2026-05-09 02:56 | 29.99090 | -95.33501 | 104 ft | 22 kts | 270° |
| 2026-05-09 02:56 | 29.99089 | -95.33683 | 104 ft | 23 kts | 269° |
| 2026-05-09 02:56 | 29.99089 | -95.33855 | 104 ft | 22 kts | 270° |
| 2026-05-09 02:56 | 29.99089 | -95.34026 | 104 ft | 22 kts | 270° |
| 2026-05-09 02:57 | 29.99089 | -95.34193 | 104 ft | 20 kts | 271° |
| 2026-05-09 02:57 | 29.99089 | -95.34356 | 105 ft | 21 kts | 270° |
| 2026-05-09 02:57 | 29.99089 | -95.34515 | 103 ft | 19 kts | 270° |
| 2026-05-09 02:57 | 29.99089 | -95.34667 | 105 ft | 18 kts | 270° |
| 2026-05-09 02:58 | 29.99089 | -95.34818 | 105 ft | 20 kts | 270° |
| 2026-05-09 02:58 | 29.99089 | -95.34974 | 105 ft | 20 kts | 270° |
| 2026-05-09 02:58 | 29.99088 | -95.35136 | 105 ft | 20 kts | 270° |
| 2026-05-09 02:58 | 29.99088 | -95.35296 | 105 ft | 20 kts | 270° |
| 2026-05-09 02:59 | 29.99079 | -95.35444 | 106 ft | 17 kts | 242° |
| 2026-05-09 02:59 | 29.98972 | -95.35483 | 106 ft | 17 kts | 180° |
| 2026-05-09 02:59 | 29.98886 | -95.35553 | 105 ft | 16 kts | 242° |
| 2026-05-09 02:59 | 29.98841 | -95.35651 | 105 ft | 10 kts | 241° |
| 2026-05-09 03:00 | 29.98831 | -95.35671 | 107 ft | 0 kts | 241° |
| 2026-05-09 03:00 | 29.98831 | -95.35672 | 107 ft | 1 kts | 241° |
| 2026-05-09 03:00 | 29.98825 | -95.35684 | 98 ft | 3 kts | 241° |
| 2026-05-09 03:00 | 29.98811 | -95.35714 | 106 ft | 6 kts | 241° |
| 2026-05-09 03:01 | 29.98784 | -95.35757 | 108 ft | 5 kts | 202° |
| 2026-05-09 03:01 | 29.98739 | -95.35750 | 108 ft | 9 kts | 154° |
| 2026-05-09 03:01 | 29.98560 | -95.35641 | 107 ft | 58 kts | 152° |
| 2026-05-09 03:01 | 29.98038 | -95.35320 | 105 ft | 112 kts | 152° |
| 2026-05-09 03:02 | 29.97218 | -95.34814 | 101 ft | 153 kts | 152° |
| 2026-05-09 03:02 | 29.96243 | -95.34213 | 432 ft | 161 kts | 146° |
| 2026-05-09 03:02 | 29.95251 | -95.33501 | 737 ft | 178 kts | 152° |
| 2026-05-09 03:02 | 29.94032 | -95.33231 | 1280 ft | 179 kts | 184° |
| 2026-05-09 03:03 | 29.92880 | -95.33761 | 1920 ft | 185 kts | 217° |
| 2026-05-09 03:03 | 29.92079 | -95.34976 | 2594 ft | 199 kts | 243° |
| 2026-05-09 03:03 | 29.91524 | -95.36529 | 3021 ft | 218 kts | 244° |
| 2026-05-09 03:03 | 29.90829 | -95.38129 | 3301 ft | 230 kts | 240° |
| 2026-05-09 03:04 | 29.90066 | -95.39788 | 3512 ft | 237 kts | 241° |
| 2026-05-09 03:04 | 29.89284 | -95.41466 | 3497 ft | 238 kts | 240° |
| 2026-05-09 03:04 | 29.88483 | -95.43140 | 3995 ft | 236 kts | 239° |
| 2026-05-09 03:04 | 29.87651 | -95.44784 | 4906 ft | 241 kts | 239° |
| 2026-05-09 03:05 | 29.86810 | -95.46457 | 5848 ft | 242 kts | 239° |
| 2026-05-09 03:05 | 29.85963 | -95.48145 | 6716 ft | 245 kts | 239° |
| 2026-05-09 03:05 | 29.85116 | -95.49862 | 7553 ft | 248 kts | 240° |
| 2026-05-09 03:05 | 29.84268 | -95.51604 | 8428 ft | 251 kts | 240° |
| 2026-05-09 03:06 | 29.83424 | -95.53344 | 9283 ft | 254 kts | 243° |
| 2026-05-09 03:06 | 29.82940 | -95.55290 | 10133 ft | 256 kts | 266° |
| 2026-05-09 03:06 | 29.83214 | -95.57321 | 10938 ft | 261 kts | 289° |
| 2026-05-09 03:06 | 29.84020 | -95.59210 | 11800 ft | 264 kts | 294° |
| 2026-05-09 03:07 | 29.84895 | -95.61111 | 12482 ft | 277 kts | 295° |
| 2026-05-09 03:07 | 29.85856 | -95.63135 | 12910 ft | 298 kts | 296° |
| 2026-05-09 03:07 | 29.86897 | -95.65290 | 13324 ft | 317 kts | 296° |
| 2026-05-09 03:07 | 29.87999 | -95.67546 | 13881 ft | 330 kts | 296° |
| 2026-05-09 03:08 | 29.89139 | -95.69865 | 14661 ft | 332 kts | 296° |
| 2026-05-09 03:08 | 29.90281 | -95.72182 | 15509 ft | 334 kts | 296° |
| 2026-05-09 03:08 | 29.91413 | -95.74478 | 16289 ft | 336 kts | 296° |
| 2026-05-09 03:08 | 29.92571 | -95.76827 | 17081 ft | 338 kts | 296° |
| 2026-05-09 03:09 | 29.93737 | -95.79193 | 17855 ft | 341 kts | 296° |
| 2026-05-09 03:09 | 29.94911 | -95.81578 | 18550 ft | 343 kts | 296° |
| 2026-05-09 03:09 | 29.96096 | -95.83986 | 19169 ft | 346 kts | 296° |
| 2026-05-09 03:09 | 29.97289 | -95.86412 | 19801 ft | 349 kts | 295° |
| 2026-05-09 03:10 | 29.98491 | -95.88858 | 20428 ft | 352 kts | 295° |
| 2026-05-09 03:10 | 29.99703 | -95.91325 | 21055 ft | 355 kts | 294° |
| 2026-05-09 03:10 | 30.00925 | -95.93811 | 21673 ft | 358 kts | 294° |
| 2026-05-09 03:10 | 30.02139 | -95.96285 | 22269 ft | 361 kts | 294° |
| 2026-05-09 03:11 | 30.03379 | -95.98814 | 22862 ft | 364 kts | 294° |
| 2026-05-09 03:11 | 30.04645 | -96.01396 | 23088 ft | 377 kts | 294° |
| 2026-05-09 03:11 | 30.05959 | -96.04077 | 23232 ft | 391 kts | 294° |
| 2026-05-09 03:11 | 30.07060 | -96.06930 | 23597 ft | 386 kts | 280° |
| 2026-05-09 03:12 | 30.07569 | -96.09964 | 24091 ft | 386 kts | 277° |
| 2026-05-09 03:12 | 30.08075 | -96.13019 | 24534 ft | 388 kts | 276° |
| 2026-05-09 03:12 | 30.08567 | -96.16085 | 25008 ft | 390 kts | 276° |
| 2026-05-09 03:12 | 30.09051 | -96.19171 | 25485 ft | 391 kts | 276° |
| 2026-05-09 03:13 | 30.10012 | -96.25382 | 26454 ft | 394 kts | 275° |
| 2026-05-09 03:13 | 30.10484 | -96.28448 | 27035 ft | 392 kts | 275° |
| 2026-05-09 03:13 | 30.10959 | -96.31540 | 27654 ft | 390 kts | 275° |
| 2026-05-09 03:14 | 30.11431 | -96.34616 | 28290 ft | 387 kts | 274° |
| 2026-05-09 03:14 | 30.11899 | -96.37666 | 28952 ft | 384 kts | 274° |
| 2026-05-09 03:14 | 30.12362 | -96.40691 | 29629 ft | 381 kts | 274° |
| 2026-05-09 03:14 | 30.12820 | -96.43689 | 30230 ft | 377 kts | 274° |
| 2026-05-09 03:15 | 30.13273 | -96.46659 | 30795 ft | 374 kts | 274° |
| 2026-05-09 03:15 | 30.13721 | -96.49602 | 31355 ft | 370 kts | 274° |
| 2026-05-09 03:15 | 30.14165 | -96.52518 | 31906 ft | 367 kts | 274° |
| 2026-05-09 03:15 | 30.14604 | -96.55411 | 32472 ft | 364 kts | 274° |
| 2026-05-09 03:16 | 30.15038 | -96.58280 | 33032 ft | 361 kts | 274° |
| 2026-05-09 03:16 | 30.15462 | -96.61077 | 33564 ft | 358 kts | 273° |
| 2026-05-09 03:16 | 30.15890 | -96.63916 | 33800 ft | 361 kts | 273° |
| 2026-05-09 03:16 | 30.16326 | -96.66806 | 33800 ft | 369 kts | 274° |
| 2026-05-09 03:17 | 30.17221 | -96.72756 | 33840 ft | 382 kts | 274° |
| 2026-05-09 03:17 | 30.18131 | -96.78820 | 33879 ft | 383 kts | 274° |
| 2026-05-09 03:18 | 30.19032 | -96.84843 | 33925 ft | 383 kts | 274° |
| 2026-05-09 03:18 | 30.19936 | -96.90909 | 33936 ft | 383 kts | 273° |
| 2026-05-09 03:19 | 30.20840 | -96.96993 | 33936 ft | 384 kts | 273° |
| 2026-05-09 03:19 | 30.21741 | -97.03075 | 33934 ft | 385 kts | 273° |
| 2026-05-09 03:20 | 30.22647 | -97.09169 | 33922 ft | 385 kts | 273° |
| 2026-05-09 03:20 | 30.23557 | -97.15267 | 33900 ft | 385 kts | 273° |
| 2026-05-09 03:21 | 30.24460 | -97.21336 | 33867 ft | 385 kts | 273° |
| 2026-05-09 03:21 | 30.25366 | -97.27446 | 33843 ft | 386 kts | 273° |
| 2026-05-09 03:22 | 30.26270 | -97.33565 | 33828 ft | 386 kts | 273° |
| 2026-05-09 03:22 | 30.27172 | -97.39689 | 33850 ft | 386 kts | 273° |
| 2026-05-09 03:23 | 30.28067 | -97.45780 | 33868 ft | 387 kts | 273° |
| 2026-05-09 03:23 | 30.28965 | -97.51917 | 33877 ft | 387 kts | 273° |
| 2026-05-09 03:24 | 30.29861 | -97.58064 | 33889 ft | 387 kts | 273° |
| 2026-05-09 03:24 | 30.30756 | -97.64217 | 33897 ft | 388 kts | 273° |
| 2026-05-09 03:25 | 30.31648 | -97.70374 | 33894 ft | 388 kts | 273° |
| 2026-05-09 03:25 | 30.32855 | -97.76456 | 33891 ft | 392 kts | 277° |
| 2026-05-09 03:26 | 30.34167 | -97.82591 | 33889 ft | 392 kts | 276° |
| 2026-05-09 03:26 | 30.35456 | -97.88724 | 33878 ft | 392 kts | 276° |
| 2026-05-09 03:27 | 30.36743 | -97.94868 | 33874 ft | 393 kts | 276° |
| 2026-05-09 03:27 | 30.38027 | -98.01019 | 33875 ft | 393 kts | 276° |
| 2026-05-09 03:28 | 30.39300 | -98.07132 | 33886 ft | 394 kts | 276° |
| 2026-05-09 03:28 | 30.40582 | -98.13299 | 33890 ft | 394 kts | 276° |
| 2026-05-09 03:29 | 30.41860 | -98.19468 | 33907 ft | 394 kts | 276° |
| 2026-05-09 03:29 | 30.43138 | -98.25650 | 33921 ft | 395 kts | 276° |
| 2026-05-09 03:30 | 30.44415 | -98.31842 | 33925 ft | 395 kts | 276° |
| 2026-05-09 03:30 | 30.45603 | -98.38008 | 33925 ft | 395 kts | 275° |
| 2026-05-09 03:31 | 30.46778 | -98.44232 | 33927 ft | 395 kts | 275° |
| 2026-05-09 03:31 | 30.47953 | -98.50461 | 33915 ft | 396 kts | 275° |
| 2026-05-09 03:32 | 30.49127 | -98.56697 | 33905 ft | 396 kts | 275° |
| 2026-05-09 03:32 | 30.50300 | -98.62945 | 33888 ft | 397 kts | 275° |
| 2026-05-09 03:33 | 30.51461 | -98.69152 | 33876 ft | 397 kts | 275° |
| 2026-05-09 03:33 | 30.52630 | -98.75414 | 33881 ft | 398 kts | 275° |
| 2026-05-09 03:34 | 30.53799 | -98.81697 | 33872 ft | 398 kts | 275° |
| 2026-05-09 03:34 | 30.54959 | -98.87943 | 33865 ft | 399 kts | 275° |
| 2026-05-09 03:35 | 30.56124 | -98.94240 | 33858 ft | 399 kts | 275° |
| 2026-05-09 03:35 | 30.57287 | -99.00544 | 33851 ft | 400 kts | 275° |
| 2026-05-09 03:36 | 30.58449 | -99.06859 | 33848 ft | 401 kts | 275° |
| 2026-05-09 03:36 | 30.59415 | -99.12122 | 33848 ft | 401 kts | 275° |
| 2026-05-09 03:37 | 30.60764 | -99.19493 | 33839 ft | 402 kts | 275° |
| 2026-05-09 03:37 | 30.61923 | -99.25842 | 33840 ft | 402 kts | 275° |
| 2026-05-09 03:38 | 30.62884 | -99.31125 | 33834 ft | 403 kts | 275° |
| 2026-05-09 03:38 | 30.64039 | -99.37489 | 33843 ft | 403 kts | 275° |
| 2026-05-09 03:39 | 30.65191 | -99.43860 | 33855 ft | 403 kts | 275° |
| 2026-05-09 03:39 | 30.66343 | -99.50241 | 33867 ft | 404 kts | 275° |
| 2026-05-09 03:40 | 30.67483 | -99.56583 | 33868 ft | 404 kts | 275° |
| 2026-05-09 03:40 | 30.68627 | -99.62962 | 33880 ft | 404 kts | 275° |
| 2026-05-09 03:41 | 30.69770 | -99.69353 | 33884 ft | 404 kts | 275° |
| 2026-05-09 03:41 | 30.70910 | -99.75748 | 33885 ft | 404 kts | 275° |
| 2026-05-09 03:42 | 30.72049 | -99.82151 | 33878 ft | 404 kts | 275° |
| 2026-05-09 03:42 | 30.73182 | -99.88547 | 33873 ft | 405 kts | 275° |
| 2026-05-09 03:43 | 30.74307 | -99.94915 | 33862 ft | 405 kts | 275° |
| 2026-05-09 03:43 | 30.75437 | -100.01329 | 33860 ft | 405 kts | 274° |
| 2026-05-09 03:44 | 30.76564 | -100.07745 | 33846 ft | 405 kts | 274° |
| 2026-05-09 03:44 | 30.77690 | -100.14174 | 33851 ft | 406 kts | 274° |
| 2026-05-09 03:45 | 30.78804 | -100.20557 | 33857 ft | 406 kts | 274° |
| 2026-05-09 03:45 | 30.79926 | -100.27007 | 33865 ft | 407 kts | 274° |
| 2026-05-09 03:46 | 30.81047 | -100.33465 | 33868 ft | 408 kts | 274° |
| 2026-05-09 03:46 | 30.82165 | -100.39931 | 33885 ft | 408 kts | 274° |
| 2026-05-09 03:47 | 30.83275 | -100.46371 | 33899 ft | 409 kts | 274° |
| 2026-05-09 03:47 | 30.84392 | -100.52864 | 33913 ft | 410 kts | 274° |
| 2026-05-09 03:48 | 30.85506 | -100.59365 | 33915 ft | 410 kts | 274° |
| 2026-05-09 03:48 | 30.86618 | -100.65876 | 33916 ft | 410 kts | 274° |
| 2026-05-09 03:49 | 30.87727 | -100.72390 | 33906 ft | 411 kts | 274° |
| 2026-05-09 03:49 | 30.88835 | -100.78921 | 33899 ft | 411 kts | 275° |
| 2026-05-09 03:50 | 30.89933 | -100.85409 | 33891 ft | 411 kts | 275° |
| 2026-05-09 03:50 | 30.91036 | -100.91949 | 33907 ft | 412 kts | 275° |
| 2026-05-09 03:51 | 30.92136 | -100.98493 | 33924 ft | 412 kts | 275° |
| 2026-05-09 03:51 | 30.93232 | -101.05035 | 33934 ft | 412 kts | 275° |
| 2026-05-09 03:52 | 30.94326 | -101.11584 | 33934 ft | 412 kts | 275° |
| 2026-05-09 03:52 | 30.95408 | -101.18086 | 33942 ft | 412 kts | 275° |
| 2026-05-09 03:53 | 30.96494 | -101.24629 | 33929 ft | 412 kts | 275° |
| 2026-05-09 03:53 | 30.97576 | -101.31173 | 33920 ft | 412 kts | 275° |
| 2026-05-09 03:54 | 30.98657 | -101.37726 | 33904 ft | 412 kts | 275° |
| 2026-05-09 03:54 | 30.99733 | -101.44279 | 33887 ft | 412 kts | 275° |
| 2026-05-09 03:55 | 31.00799 | -101.50788 | 33875 ft | 412 kts | 275° |
| 2026-05-09 03:55 | 31.01870 | -101.57349 | 33870 ft | 412 kts | 276° |
| 2026-05-09 03:56 | 31.02939 | -101.63915 | 33866 ft | 412 kts | 276° |
| 2026-05-09 03:56 | 31.04003 | -101.70481 | 33856 ft | 412 kts | 276° |
| 2026-05-09 03:57 | 31.05065 | -101.77049 | 33855 ft | 413 kts | 276° |
| 2026-05-09 03:57 | 31.06129 | -101.83653 | 33857 ft | 415 kts | 276° |
| 2026-05-09 03:58 | 31.07185 | -101.90237 | 33848 ft | 417 kts | 276° |
| 2026-05-09 03:58 | 31.08250 | -101.96896 | 33856 ft | 418 kts | 277° |
| 2026-05-09 03:59 | 31.09316 | -102.03584 | 33848 ft | 420 kts | 277° |
| 2026-05-09 03:59 | 31.10384 | -102.10300 | 33848 ft | 422 kts | 277° |
| 2026-05-09 04:00 | 31.11443 | -102.16993 | 33846 ft | 423 kts | 277° |
| 2026-05-09 04:00 | 31.12512 | -102.23769 | 33842 ft | 426 kts | 277° |
| 2026-05-09 04:01 | 31.13582 | -102.30577 | 33840 ft | 428 kts | 278° |
| 2026-05-09 04:01 | 31.14654 | -102.37422 | 33839 ft | 430 kts | 278° |
| 2026-05-09 04:02 | 31.15728 | -102.44301 | 33837 ft | 431 kts | 278° |
| 2026-05-09 04:02 | 31.16795 | -102.51162 | 33834 ft | 433 kts | 278° |
| 2026-05-09 04:03 | 31.17869 | -102.58093 | 33833 ft | 435 kts | 278° |
| 2026-05-09 04:03 | 31.18943 | -102.65054 | 33836 ft | 436 kts | 278° |
| 2026-05-09 04:04 | 31.20018 | -102.72040 | 33845 ft | 437 kts | 279° |
| 2026-05-09 04:04 | 31.21083 | -102.78997 | 33855 ft | 439 kts | 279° |
| 2026-05-09 04:05 | 31.22155 | -102.86016 | 33863 ft | 440 kts | 279° |
| 2026-05-09 04:05 | 31.23225 | -102.93052 | 33854 ft | 441 kts | 279° |
| 2026-05-09 04:06 | 31.24296 | -103.00124 | 33848 ft | 442 kts | 279° |
| 2026-05-09 04:06 | 31.25356 | -103.07152 | 33835 ft | 443 kts | 279° |
| 2026-05-09 04:07 | 31.26424 | -103.14252 | 33845 ft | 444 kts | 280° |
| 2026-05-09 04:07 | 31.27488 | -103.21358 | 33875 ft | 444 kts | 280° |
| 2026-05-09 04:08 | 31.28550 | -103.28480 | 33900 ft | 445 kts | 280° |
| 2026-05-09 04:08 | 31.29603 | -103.35568 | 33929 ft | 446 kts | 280° |
| 2026-05-09 04:09 | 31.30661 | -103.42718 | 33956 ft | 447 kts | 281° |
| 2026-05-09 04:09 | 31.31717 | -103.49887 | 33961 ft | 448 kts | 281° |
| 2026-05-09 04:10 | 31.32773 | -103.57073 | 33960 ft | 449 kts | 281° |
| 2026-05-09 04:10 | 31.33825 | -103.64271 | 33949 ft | 450 kts | 281° |
| 2026-05-09 04:11 | 31.34869 | -103.71441 | 33921 ft | 451 kts | 281° |
| 2026-05-09 04:11 | 31.35917 | -103.78668 | 33894 ft | 451 kts | 281° |
| 2026-05-09 04:12 | 31.36967 | -103.85930 | 33870 ft | 453 kts | 281° |
| 2026-05-09 04:12 | 31.38007 | -103.93155 | 33853 ft | 454 kts | 281° |
| 2026-05-09 04:13 | 31.39054 | -104.00447 | 33861 ft | 455 kts | 281° |
| 2026-05-09 04:13 | 31.40099 | -104.07757 | 33855 ft | 456 kts | 281° |
| 2026-05-09 04:14 | 31.41141 | -104.15082 | 33868 ft | 457 kts | 281° |
| 2026-05-09 04:14 | 31.42181 | -104.22418 | 33872 ft | 457 kts | 281° |
| 2026-05-09 04:15 | 31.43210 | -104.29709 | 33867 ft | 455 kts | 282° |
| 2026-05-09 04:15 | 31.43718 | -104.33315 | 33637 ft | 449 kts | 282° |
| 2026-05-09 04:15 | 31.44228 | -104.36943 | 33037 ft | 454 kts | 282° |
| 2026-05-09 04:16 | 31.44741 | -104.40603 | 32431 ft | 457 kts | 282° |
| 2026-05-09 04:16 | 31.45223 | -104.44296 | 31864 ft | 461 kts | 280° |
| 2026-05-09 04:16 | 31.45615 | -104.48038 | 31283 ft | 463 kts | 281° |
| 2026-05-09 04:16 | 31.46022 | -104.51791 | 30758 ft | 466 kts | 281° |
| 2026-05-09 04:17 | 31.46415 | -104.55517 | 30146 ft | 468 kts | 281° |
| 2026-05-09 04:17 | 31.46808 | -104.59299 | 29511 ft | 471 kts | 281° |
| 2026-05-09 04:17 | 31.47207 | -104.63120 | 28992 ft | 473 kts | 281° |
| 2026-05-09 04:17 | 31.47607 | -104.66959 | 28486 ft | 475 kts | 281° |
| 2026-05-09 04:18 | 31.48007 | -104.70808 | 27958 ft | 477 kts | 281° |
| 2026-05-09 04:18 | 31.48407 | -104.74666 | 27424 ft | 479 kts | 281° |
| 2026-05-09 04:18 | 31.48809 | -104.78555 | 26900 ft | 481 kts | 280° |
| 2026-05-09 04:18 | 31.49210 | -104.82450 | 26373 ft | 483 kts | 280° |
| 2026-05-09 04:19 | 31.49612 | -104.86361 | 25856 ft | 485 kts | 280° |
| 2026-05-09 04:19 | 31.50009 | -104.90240 | 25343 ft | 487 kts | 280° |
| 2026-05-09 04:19 | 31.50412 | -104.94172 | 24870 ft | 484 kts | 278° |
| 2026-05-09 04:19 | 31.50807 | -104.98054 | 24358 ft | 476 kts | 278° |
| 2026-05-09 04:20 | 31.51195 | -105.01887 | 23843 ft | 472 kts | 278° |
| 2026-05-09 04:20 | 31.51580 | -105.05696 | 23337 ft | 470 kts | 278° |
| 2026-05-09 04:20 | 31.51963 | -105.09486 | 22780 ft | 466 kts | 278° |
| 2026-05-09 04:20 | 31.52341 | -105.13245 | 22264 ft | 463 kts | 278° |
| 2026-05-09 04:21 | 31.52715 | -105.16978 | 21803 ft | 460 kts | 278° |
| 2026-05-09 04:21 | 31.53086 | -105.20686 | 21338 ft | 456 kts | 278° |
| 2026-05-09 04:21 | 31.53804 | -105.27907 | 20429 ft | 439 kts | 278° |
| 2026-05-09 04:22 | 31.54154 | -105.31428 | 19971 ft | 431 kts | 278° |
| 2026-05-09 04:22 | 31.54495 | -105.34883 | 19536 ft | 423 kts | 278° |
| 2026-05-09 04:22 | 31.54829 | -105.38277 | 19102 ft | 416 kts | 278° |
| 2026-05-09 04:22 | 31.55157 | -105.41609 | 18684 ft | 409 kts | 278° |
| 2026-05-09 04:23 | 31.55480 | -105.44907 | 18257 ft | 403 kts | 278° |
| 2026-05-09 04:23 | 31.55794 | -105.48112 | 17808 ft | 398 kts | 278° |
| 2026-05-09 04:23 | 31.56106 | -105.51313 | 17373 ft | 392 kts | 278° |
| 2026-05-09 04:23 | 31.56412 | -105.54462 | 16965 ft | 388 kts | 278° |
| 2026-05-09 04:24 | 31.56717 | -105.57600 | 16560 ft | 386 kts | 278° |
| 2026-05-09 04:24 | 31.57019 | -105.60719 | 16166 ft | 383 kts | 278° |
| 2026-05-09 04:24 | 31.57317 | -105.63801 | 15794 ft | 378 kts | 278° |
| 2026-05-09 04:24 | 31.57610 | -105.66850 | 15376 ft | 373 kts | 278° |
| 2026-05-09 04:25 | 31.57898 | -105.69855 | 14980 ft | 368 kts | 278° |
| 2026-05-09 04:25 | 31.58178 | -105.72785 | 14616 ft | 364 kts | 277° |
| 2026-05-09 04:25 | 31.58459 | -105.75721 | 14234 ft | 361 kts | 277° |
| 2026-05-09 04:25 | 31.58743 | -105.78625 | 13859 ft | 357 kts | 279° |
| 2026-05-09 04:26 | 31.59531 | -105.81358 | 13312 ft | 355 kts | 301° |
| 2026-05-09 04:26 | 31.60812 | -105.83818 | 12835 ft | 352 kts | 301° |
| 2026-05-09 04:26 | 31.62054 | -105.86288 | 12348 ft | 351 kts | 301° |
| 2026-05-09 04:26 | 31.63287 | -105.88748 | 11857 ft | 349 kts | 301° |
| 2026-05-09 04:27 | 31.64489 | -105.91151 | 11373 ft | 336 kts | 301° |
| 2026-05-09 04:27 | 31.65648 | -105.93470 | 10915 ft | 324 kts | 301° |
| 2026-05-09 04:27 | 31.66752 | -105.95682 | 10475 ft | 313 kts | 301° |
| 2026-05-09 04:27 | 31.67837 | -105.97856 | 10037 ft | 304 kts | 301° |
| 2026-05-09 04:28 | 31.68893 | -105.99974 | 9622 ft | 296 kts | 301° |
| 2026-05-09 04:28 | 31.69919 | -106.02030 | 9175 ft | 289 kts | 301° |
| 2026-05-09 04:28 | 31.70937 | -106.04072 | 8709 ft | 289 kts | 301° |
| 2026-05-09 04:28 | 31.71939 | -106.06082 | 8308 ft | 282 kts | 301° |
| 2026-05-09 04:29 | 31.72926 | -106.08063 | 7971 ft | 280 kts | 302° |
| 2026-05-09 04:29 | 31.74076 | -106.09832 | 7956 ft | 266 kts | 313° |
| 2026-05-09 04:29 | 31.75289 | -106.11431 | 7945 ft | 257 kts | 313° |
| 2026-05-09 04:29 | 31.76440 | -106.12961 | 7956 ft | 251 kts | 313° |
| 2026-05-09 04:30 | 31.77588 | -106.14497 | 7940 ft | 250 kts | 312° |
| 2026-05-09 04:30 | 31.78729 | -106.16029 | 7934 ft | 245 kts | 312° |
| 2026-05-09 04:30 | 31.79811 | -106.17484 | 7936 ft | 231 kts | 312° |
| 2026-05-09 04:30 | 31.80860 | -106.18894 | 7685 ft | 228 kts | 312° |
| 2026-05-09 04:31 | 31.81905 | -106.20300 | 7369 ft | 228 kts | 312° |
| 2026-05-09 04:31 | 31.82947 | -106.21703 | 7067 ft | 226 kts | 312° |
| 2026-05-09 04:31 | 31.83959 | -106.23067 | 6759 ft | 217 kts | 312° |
| 2026-05-09 04:31 | 31.84934 | -106.24379 | 6480 ft | 214 kts | 312° |
| 2026-05-09 04:32 | 31.85904 | -106.25698 | 6201 ft | 213 kts | 309° |
| 2026-05-09 04:32 | 31.86670 | -106.27146 | 5871 ft | 201 kts | 293° |
| 2026-05-09 04:32 | 31.86970 | -106.28704 | 5619 ft | 194 kts | 272° |
| 2026-05-09 04:32 | 31.86805 | -106.30265 | 5392 ft | 191 kts | 252° |
| 2026-05-09 04:33 | 31.86231 | -106.31627 | 5160 ft | 179 kts | 232° |
| 2026-05-09 04:33 | 31.85426 | -106.32695 | 5021 ft | 172 kts | 224° |
| 2026-05-09 04:33 | 31.84633 | -106.33727 | 4824 ft | 172 kts | 228° |
| 2026-05-09 04:33 | 31.83894 | -106.34782 | 4644 ft | 165 kts | 230° |
| 2026-05-09 04:34 | 31.83180 | -106.35788 | 4380 ft | 154 kts | 228° |
| 2026-05-09 04:34 | 31.82495 | -106.36731 | 4117 ft | 151 kts | 228° |
| 2026-05-09 04:34 | 31.81832 | -106.37651 | 3960 ft | 137 kts | 228° |
| 2026-05-09 04:34 | 31.81306 | -106.38385 | 3949 ft | 91 kts | 230° |
| 2026-05-09 04:35 | 31.81002 | -106.38798 | 3946 ft | 51 kts | 229° |
| 2026-05-09 04:35 | 31.80840 | -106.39020 | 3941 ft | 20 kts | 208° |
| 2026-05-09 04:35 | 31.80736 | -106.38953 | 3938 ft | 17 kts | 139° |
| 2026-05-09 04:35 | 31.80638 | -106.38893 | 3936 ft | 15 kts | 199° |
| 2026-05-09 04:36 | 31.80555 | -106.38971 | 3936 ft | 15 kts | 222° |
| 2026-05-09 04:36 | 31.80495 | -106.39037 | 3935 ft | 9 kts | 223° |
| 2026-05-09 04:36 | 31.80457 | -106.39078 | 3935 ft | 5 kts | 223° |
| 2026-05-09 04:36 | 31.80419 | -106.39120 | 3934 ft | 9 kts | 223° |
| 2026-05-09 04:37 | 31.80367 | -106.39176 | 3935 ft | 11 kts | 223° |
| 2026-05-09 04:37 | 31.80311 | -106.39238 | 3936 ft | 12 kts | 223° |
| 2026-05-09 04:37 | 31.80247 | -106.39308 | 3936 ft | 14 kts | 221° |
| 2026-05-09 04:37 | 31.80177 | -106.39371 | 3935 ft | 11 kts | 216° |
| 2026-05-09 04:38 | 31.80142 | -106.39428 | 3935 ft | 8 kts | 250° |
| 2026-05-09 04:38 | 31.80123 | -106.39439 | 3935 ft | 4 kts | 178° |
| 2026-05-09 04:38 | 31.80092 | -106.39427 | 3935 ft | 4 kts | 163° |
| 2026-05-09 04:38 | 31.80070 | -106.39421 | 3935 ft | 2 kts | 166° |
| 2026-05-09 04:39 | 31.80061 | -106.39418 | 3935 ft | 1 kts | 166° |